sensor_id;sensor_type;location;lat;lon;timestamp;pressure;altitude;pressure_sealevel;temperature;humidity
58662;BME280;44432;49.786;22.760;2023-03-16T00:00:50;99287.19;;;2.38;66.33
58662;BME280;44432;49.786;22.760;2023-03-16T00:03:20;99289.53;;;2.38;66.26
58662;BME280;44432;49.786;22.760;2023-03-16T00:05:47;99289.98;;;2.35;66.24
58662;BME280;44432;49.786;22.760;2023-03-16T00:08:14;99288.08;;;2.28;65.90
58662;BME280;44432;49.786;22.760;2023-03-16T00:10:42;99295.59;;;2.26;66.24
58662;BME280;44432;49.786;22.760;2023-03-16T00:13:12;99294.95;;;2.22;66.06
58662;BME280;44432;49.786;22.760;2023-03-16T00:15:40;99297.95;;;2.18;66.33
58662;BME280;44432;49.786;22.760;2023-03-16T00:18:08;99291.75;;;2.14;66.54
58662;BME280;44432;49.786;22.760;2023-03-16T00:20:35;99299.30;;;2.15;66.35
58662;BME280;44432;49.786;22.760;2023-03-16T00:23:02;99302.55;;;2.14;66.24
58662;BME280;44432;49.786;22.760;2023-03-16T00:25:29;99307.73;;;2.13;66.56
58662;BME280;44432;49.786;22.760;2023-03-16T00:27:58;99306.30;;;2.10;66.49
58662;BME280;44432;49.786;22.760;2023-03-16T00:30:29;99306.88;;;2.08;66.31
58662;BME280;44432;49.786;22.760;2023-03-16T00:32:57;99304.41;;;2.07;66.63
58662;BME280;44432;49.786;22.760;2023-03-16T00:35:24;99305.13;;;2.05;66.64
58662;BME280;44432;49.786;22.760;2023-03-16T00:37:51;99306.45;;;2.02;66.49
58662;BME280;44432;49.786;22.760;2023-03-16T00:40:23;99303.64;;;2.01;66.64
58662;BME280;44432;49.786;22.760;2023-03-16T00:42:50;99306.54;;;1.99;66.58
58662;BME280;44432;49.786;22.760;2023-03-16T00:45:17;99306.27;;;1.99;66.55
58662;BME280;44432;49.786;22.760;2023-03-16T00:47:44;99308.24;;;1.96;66.75
58662;BME280;44432;49.786;22.760;2023-03-16T00:50:11;99309.96;;;1.95;66.97
58662;BME280;44432;49.786;22.760;2023-03-16T00:52:39;99309.70;;;1.94;66.61
58662;BME280;44432;49.786;22.760;2023-03-16T00:55:08;99311.52;;;1.91;66.99
58662;BME280;44432;49.786;22.760;2023-03-16T00:57:35;99308.27;;;1.87;66.95
58662;BME280;44432;49.786;22.760;2023-03-16T01:00:02;99312.64;;;1.89;67.12
58662;BME280;44432;49.786;22.760;2023-03-16T01:02:38;99312.25;;;1.89;66.89
58662;BME280;44432;49.786;22.760;2023-03-16T01:05:06;99312.67;;;1.88;67.27
58662;BME280;44432;49.786;22.760;2023-03-16T01:07:34;99316.83;;;1.87;67.20
58662;BME280;44432;49.786;22.760;2023-03-16T01:10:02;99316.30;;;1.85;67.24
58662;BME280;44432;49.786;22.760;2023-03-16T01:12:29;99316.42;;;1.83;67.10
58662;BME280;44432;49.786;22.760;2023-03-16T01:14:56;99322.39;;;1.80;67.05
58662;BME280;44432;49.786;22.760;2023-03-16T01:17:24;99324.23;;;1.79;67.26
58662;BME280;44432;49.786;22.760;2023-03-16T01:19:51;99318.42;;;1.75;67.50
58662;BME280;44432;49.786;22.760;2023-03-16T01:22:18;99326.87;;;1.77;67.35
58662;BME280;44432;49.786;22.760;2023-03-16T01:24:46;99329.42;;;1.76;67.69
58662;BME280;44432;49.786;22.760;2023-03-16T01:27:13;99327.10;;;1.77;67.60
58662;BME280;44432;49.786;22.760;2023-03-16T01:29:41;99329.09;;;1.74;67.38
58662;BME280;44432;49.786;22.760;2023-03-16T01:32:10;99329.11;;;1.72;67.67
58662;BME280;44432;49.786;22.760;2023-03-16T01:34:37;99331.05;;;1.70;67.80
58662;BME280;44432;49.786;22.760;2023-03-16T01:37:04;99335.58;;;1.68;67.67
58662;BME280;44432;49.786;22.760;2023-03-16T01:39:32;99343.02;;;1.67;67.90
58662;BME280;44432;49.786;22.760;2023-03-16T01:41:59;99343.98;;;1.66;67.91
58662;BME280;44432;49.786;22.760;2023-03-16T01:44:27;99348.34;;;1.66;68.05
58662;BME280;44432;49.786;22.760;2023-03-16T01:46:56;99347.27;;;1.66;68.10
58662;BME280;44432;49.786;22.760;2023-03-16T01:49:24;99352.69;;;1.65;68.02
58662;BME280;44432;49.786;22.760;2023-03-16T01:51:53;99354.34;;;1.62;68.21
58662;BME280;44432;49.786;22.760;2023-03-16T01:54:25;99354.72;;;1.60;68.18
58662;BME280;44432;49.786;22.760;2023-03-16T01:56:56;99353.70;;;1.58;68.22
58662;BME280;44432;49.786;22.760;2023-03-16T01:59:26;99351.16;;;1.54;68.11
58662;BME280;44432;49.786;22.760;2023-03-16T02:01:57;99348.39;;;1.53;68.18
58662;BME280;44432;49.786;22.760;2023-03-16T02:04:37;99352.90;;;1.51;68.49
58662;BME280;44432;49.786;22.760;2023-03-16T02:07:07;99355.35;;;1.49;68.54
58662;BME280;44432;49.786;22.760;2023-03-16T02:09:35;99356.13;;;1.48;68.48
58662;BME280;44432;49.786;22.760;2023-03-16T02:12:03;99353.08;;;1.46;68.33
58662;BME280;44432;49.786;22.760;2023-03-16T02:14:31;99352.19;;;1.43;68.61
58662;BME280;44432;49.786;22.760;2023-03-16T02:16:58;99351.88;;;1.41;68.77
58662;BME280;44432;49.786;22.760;2023-03-16T02:19:28;99355.58;;;1.40;68.67
58662;BME280;44432;49.786;22.760;2023-03-16T02:22:00;99362.08;;;1.39;68.65
58662;BME280;44432;49.786;22.760;2023-03-16T02:24:28;99360.90;;;1.37;68.61
58662;BME280;44432;49.786;22.760;2023-03-16T02:26:57;99365.23;;;1.35;68.71
58662;BME280;44432;49.786;22.760;2023-03-16T02:32:02;99365.49;;;1.31;68.94
58662;BME280;44432;49.786;22.760;2023-03-16T02:34:31;99363.34;;;1.30;68.83
58662;BME280;44432;49.786;22.760;2023-03-16T02:36:58;99365.23;;;1.26;68.89
58662;BME280;44432;49.786;22.760;2023-03-16T02:39:26;99370.97;;;1.24;68.98
58662;BME280;44432;49.786;22.760;2023-03-16T02:41:54;99371.92;;;1.22;69.11
58662;BME280;44432;49.786;22.760;2023-03-16T02:44:22;99374.48;;;1.21;69.15
58662;BME280;44432;49.786;22.760;2023-03-16T02:46:51;99386.14;;;1.18;69.25
58662;BME280;44432;49.786;22.760;2023-03-16T02:49:21;99382.98;;;1.17;69.03
58662;BME280;44432;49.786;22.760;2023-03-16T02:51:50;99388.59;;;1.16;69.53
58662;BME280;44432;49.786;22.760;2023-03-16T02:54:18;99389.62;;;1.15;69.15
58662;BME280;44432;49.786;22.760;2023-03-16T02:56:45;99389.55;;;1.12;69.44
58662;BME280;44432;49.786;22.760;2023-03-16T02:59:13;99394.05;;;1.10;69.50
58662;BME280;44432;49.786;22.760;2023-03-16T03:01:40;99397.79;;;1.09;69.64
58662;BME280;44432;49.786;22.760;2023-03-16T03:04:07;99397.32;;;1.07;69.75
58662;BME280;44432;49.786;22.760;2023-03-16T03:06:34;99404.60;;;1.08;69.83
58662;BME280;44432;49.786;22.760;2023-03-16T03:09:02;99410.02;;;1.06;69.68
58662;BME280;44432;49.786;22.760;2023-03-16T03:11:30;99414.05;;;1.04;69.81
58662;BME280;44432;49.786;22.760;2023-03-16T03:13:57;99418.77;;;1.02;69.81
58662;BME280;44432;49.786;22.760;2023-03-16T03:16:24;99424.20;;;1.02;69.84
58662;BME280;44432;49.786;22.760;2023-03-16T03:18:51;99417.98;;;1.00;69.81
58662;BME280;44432;49.786;22.760;2023-03-16T03:21:19;99423.40;;;0.99;69.89
58662;BME280;44432;49.786;22.760;2023-03-16T03:23:46;99423.38;;;0.97;69.95
58662;BME280;44432;49.786;22.760;2023-03-16T03:26:14;99423.86;;;0.96;70.00
58662;BME280;44432;49.786;22.760;2023-03-16T03:28:41;99425.33;;;0.93;69.95
58662;BME280;44432;49.786;22.760;2023-03-16T03:31:12;99429.12;;;0.90;70.12
58662;BME280;44432;49.786;22.760;2023-03-16T03:33:39;99439.15;;;0.88;69.90
58662;BME280;44432;49.786;22.760;2023-03-16T03:36:07;99443.29;;;0.87;69.93
58662;BME280;44432;49.786;22.760;2023-03-16T03:38:34;99445.23;;;0.85;70.18
58662;BME280;44432;49.786;22.760;2023-03-16T03:41:02;99444.19;;;0.83;70.23
58662;BME280;44432;49.786;22.760;2023-03-16T03:43:29;99446.30;;;0.81;70.27
58662;BME280;44432;49.786;22.760;2023-03-16T03:45:57;99444.79;;;0.79;70.33
58662;BME280;44432;49.786;22.760;2023-03-16T03:48:24;99449.27;;;0.75;70.22
58662;BME280;44432;49.786;22.760;2023-03-16T03:50:51;99453.88;;;0.76;70.30
58662;BME280;44432;49.786;22.760;2023-03-16T03:53:19;99454.46;;;0.75;70.46
58662;BME280;44432;49.786;22.760;2023-03-16T03:55:46;99459.05;;;0.76;70.45
58662;BME280;44432;49.786;22.760;2023-03-16T03:58:15;99460.73;;;0.75;70.42
58662;BME280;44432;49.786;22.760;2023-03-16T04:00:44;99462.61;;;0.75;70.43
58662;BME280;44432;49.786;22.760;2023-03-16T04:03:11;99460.80;;;0.73;70.42
58662;BME280;44432;49.786;22.760;2023-03-16T04:05:38;99464.30;;;0.70;70.60
58662;BME280;44432;49.786;22.760;2023-03-16T04:08:05;99464.00;;;0.68;70.48
58662;BME280;44432;49.786;22.760;2023-03-16T04:10:32;99464.73;;;0.65;70.59
58662;BME280;44432;49.786;22.760;2023-03-16T04:13:00;99464.92;;;0.63;70.59
58662;BME280;44432;49.786;22.760;2023-03-16T04:15:27;99466.20;;;0.63;70.69
58662;BME280;44432;49.786;22.760;2023-03-16T04:17:54;99468.53;;;0.62;70.68
58662;BME280;44432;49.786;22.760;2023-03-16T04:20:21;99466.77;;;0.60;70.76
58662;BME280;44432;49.786;22.760;2023-03-16T04:22:49;99463.80;;;0.59;70.76
58662;BME280;44432;49.786;22.760;2023-03-16T04:25:24;99468.52;;;0.60;70.79
58662;BME280;44432;49.786;22.760;2023-03-16T04:27:52;99477.43;;;0.59;70.77
58662;BME280;44432;49.786;22.760;2023-03-16T04:30:19;99474.62;;;0.58;70.81
58662;BME280;44432;49.786;22.760;2023-03-16T04:32:48;99479.79;;;0.58;70.90
58662;BME280;44432;49.786;22.760;2023-03-16T04:35:17;99488.56;;;0.59;70.96
58662;BME280;44432;49.786;22.760;2023-03-16T04:37:44;99487.60;;;0.60;71.02
58662;BME280;44432;49.786;22.760;2023-03-16T04:40:12;99489.79;;;0.61;71.02
58662;BME280;44432;49.786;22.760;2023-03-16T04:42:43;99497.14;;;0.62;71.05
58662;BME280;44432;49.786;22.760;2023-03-16T04:45:10;99496.75;;;0.62;71.07
58662;BME280;44432;49.786;22.760;2023-03-16T04:47:38;99499.30;;;0.63;71.20
58662;BME280;44432;49.786;22.760;2023-03-16T04:50:06;99501.84;;;0.63;71.19
58662;BME280;44432;49.786;22.760;2023-03-16T04:52:34;99502.14;;;0.64;71.13
58662;BME280;44432;49.786;22.760;2023-03-16T04:55:01;99501.86;;;0.65;71.28
58662;BME280;44432;49.786;22.760;2023-03-16T04:57:28;99504.52;;;0.66;71.23
58662;BME280;44432;49.786;22.760;2023-03-16T04:59:56;99509.52;;;0.64;71.18
58662;BME280;44432;49.786;22.760;2023-03-16T05:02:23;99515.94;;;0.64;71.30
58662;BME280;44432;49.786;22.760;2023-03-16T05:04:50;99513.32;;;0.64;71.27
58662;BME280;44432;49.786;22.760;2023-03-16T05:07:17;99519.95;;;0.66;71.20
58662;BME280;44432;49.786;22.760;2023-03-16T05:13:13;99529.31;;;0.68;71.33
58662;BME280;44432;49.786;22.760;2023-03-16T05:15:40;99532.17;;;0.69;71.48
58662;BME280;44432;49.786;22.760;2023-03-16T05:18:07;99531.48;;;0.69;71.33
58662;BME280;44432;49.786;22.760;2023-03-16T05:20:34;99530.56;;;0.70;71.41
58662;BME280;44432;49.786;22.760;2023-03-16T05:23:01;99531.98;;;0.71;71.61
58662;BME280;44432;49.786;22.760;2023-03-16T05:25:29;99534.54;;;0.73;71.60
58662;BME280;44432;49.786;22.760;2023-03-16T05:27:56;99533.84;;;0.75;71.49
58662;BME280;44432;49.786;22.760;2023-03-16T05:30:23;99540.90;;;0.75;71.51
58662;BME280;44432;49.786;22.760;2023-03-16T05:32:52;99541.25;;;0.77;71.44
58662;BME280;44432;49.786;22.760;2023-03-16T05:35:20;99546.14;;;0.79;71.45
58662;BME280;44432;49.786;22.760;2023-03-16T05:37:47;99545.88;;;0.80;71.47
58662;BME280;44432;49.786;22.760;2023-03-16T05:40:15;99544.02;;;0.81;71.38
58662;BME280;44432;49.786;22.760;2023-03-16T05:42:43;99551.91;;;0.85;71.34
58662;BME280;44432;49.786;22.760;2023-03-16T05:45:11;99552.45;;;0.87;71.36
58662;BME280;44432;49.786;22.760;2023-03-16T05:47:38;99552.44;;;0.89;71.29
58662;BME280;44432;49.786;22.760;2023-03-16T05:50:06;99549.09;;;0.91;71.43
58662;BME280;44432;49.786;22.760;2023-03-16T05:52:36;99555.41;;;0.96;71.44
58662;BME280;44432;49.786;22.760;2023-03-16T05:55:05;99559.64;;;0.99;71.32
58662;BME280;44432;49.786;22.760;2023-03-16T05:57:32;99561.76;;;0.99;70.96
58662;BME280;44432;49.786;22.760;2023-03-16T06:00:00;99561.07;;;0.98;71.28
58662;BME280;44432;49.786;22.760;2023-03-16T06:02:27;99564.70;;;1.01;71.18
58662;BME280;44432;49.786;22.760;2023-03-16T06:04:54;99565.38;;;1.04;71.22
58662;BME280;44432;49.786;22.760;2023-03-16T06:07:21;99566.14;;;1.07;71.24
58662;BME280;44432;49.786;22.760;2023-03-16T06:09:49;99562.52;;;1.10;71.14
58662;BME280;44432;49.786;22.760;2023-03-16T06:12:16;99566.10;;;1.16;71.22
58662;BME280;44432;49.786;22.760;2023-03-16T06:14:43;99570.14;;;1.21;71.04
58662;BME280;44432;49.786;22.760;2023-03-16T06:17:10;99569.14;;;1.24;71.05
58662;BME280;44432;49.786;22.760;2023-03-16T06:19:38;99572.91;;;1.30;71.07
58662;BME280;44432;49.786;22.760;2023-03-16T06:22:05;99574.60;;;1.38;70.86
58662;BME280;44432;49.786;22.760;2023-03-16T06:24:33;99576.18;;;1.43;70.81
58662;BME280;44432;49.786;22.760;2023-03-16T06:27:01;99577.09;;;1.47;70.54
58662;BME280;44432;49.786;22.760;2023-03-16T06:29:28;99582.52;;;1.50;70.45
58662;BME280;44432;49.786;22.760;2023-03-16T06:31:55;99582.00;;;1.53;70.44
58662;BME280;44432;49.786;22.760;2023-03-16T06:34:23;99584.48;;;1.60;70.44
58662;BME280;44432;49.786;22.760;2023-03-16T06:36:50;99587.71;;;1.68;70.60
58662;BME280;44432;49.786;22.760;2023-03-16T06:39:17;99592.19;;;1.77;70.56
58662;BME280;44432;49.786;22.760;2023-03-16T06:41:45;99596.38;;;1.86;70.14
58662;BME280;44432;49.786;22.760;2023-03-16T06:44:12;99594.71;;;1.92;69.80
58662;BME280;44432;49.786;22.760;2023-03-16T06:46:39;99593.23;;;1.98;69.85
58662;BME280;44432;49.786;22.760;2023-03-16T06:49:07;99603.48;;;2.06;69.62
58662;BME280;44432;49.786;22.760;2023-03-16T06:51:34;99607.89;;;2.11;69.32
58662;BME280;44432;49.786;22.760;2023-03-16T06:54:02;99604.53;;;2.13;69.13
58662;BME280;44432;49.786;22.760;2023-03-16T06:56:29;99603.84;;;2.17;69.30
58662;BME280;44432;49.786;22.760;2023-03-16T06:58:57;99605.12;;;2.22;69.25
58662;BME280;44432;49.786;22.760;2023-03-16T07:01:24;99609.58;;;2.26;68.98
58662;BME280;44432;49.786;22.760;2023-03-16T07:03:51;99606.83;;;2.29;69.04
58662;BME280;44432;49.786;22.760;2023-03-16T07:06:20;99613.65;;;2.39;69.14
58662;BME280;44432;49.786;22.760;2023-03-16T07:08:51;99618.08;;;2.52;69.20
58662;BME280;44432;49.786;22.760;2023-03-16T07:11:21;99620.09;;;2.60;68.35
58662;BME280;44432;49.786;22.760;2023-03-16T07:13:51;99625.06;;;2.59;67.82
58662;BME280;44432;49.786;22.760;2023-03-16T07:16:19;99627.84;;;2.55;68.13
58662;BME280;44432;49.786;22.760;2023-03-16T07:18:48;99624.90;;;2.57;68.68
58662;BME280;44432;49.786;22.760;2023-03-16T07:21:16;99630.23;;;2.67;68.68
58662;BME280;44432;49.786;22.760;2023-03-16T07:23:44;99644.55;;;2.62;67.98
58662;BME280;44432;49.786;22.760;2023-03-16T07:26:13;99642.07;;;2.49;67.90
58662;BME280;44432;49.786;22.760;2023-03-16T07:28:41;99638.31;;;2.39;68.05
58662;BME280;44432;49.786;22.760;2023-03-16T07:31:09;99651.69;;;2.34;68.39
58662;BME280;44432;49.786;22.760;2023-03-16T07:33:43;99649.05;;;2.27;68.44
58662;BME280;44432;49.786;22.760;2023-03-16T07:36:12;99654.06;;;2.26;68.77
58662;BME280;44432;49.786;22.760;2023-03-16T07:38:40;99656.98;;;2.24;69.05
58662;BME280;44432;49.786;22.760;2023-03-16T07:41:09;99649.92;;;2.22;69.07
58662;BME280;44432;49.786;22.760;2023-03-16T07:43:36;99658.20;;;2.26;69.35
58662;BME280;44432;49.786;22.760;2023-03-16T07:46:05;99653.22;;;2.31;69.43
58662;BME280;44432;49.786;22.760;2023-03-16T07:48:34;99656.70;;;2.34;69.49
58662;BME280;44432;49.786;22.760;2023-03-16T07:51:03;99657.52;;;2.42;69.71
58662;BME280;44432;49.786;22.760;2023-03-16T07:53:32;99656.67;;;2.54;69.73
58662;BME280;44432;49.786;22.760;2023-03-16T07:55:59;99659.82;;;2.62;69.46
58662;BME280;44432;49.786;22.760;2023-03-16T07:58:30;99660.73;;;2.62;68.92
58662;BME280;44432;49.786;22.760;2023-03-16T08:01:07;99663.94;;;2.61;68.71
58662;BME280;44432;49.786;22.760;2023-03-16T08:03:42;99660.24;;;2.61;68.94
58662;BME280;44432;49.786;22.760;2023-03-16T08:06:10;99662.90;;;2.73;69.46
58662;BME280;44432;49.786;22.760;2023-03-16T08:08:38;99665.33;;;2.90;69.64
58662;BME280;44432;49.786;22.760;2023-03-16T08:11:07;99664.88;;;3.05;69.14
58662;BME280;44432;49.786;22.760;2023-03-16T08:13:35;99666.85;;;3.25;69.45
58662;BME280;44432;49.786;22.760;2023-03-16T08:16:02;99670.47;;;3.52;69.48
58662;BME280;44432;49.786;22.760;2023-03-16T08:18:35;99675.41;;;3.77;68.48
58662;BME280;44432;49.786;22.760;2023-03-16T08:21:04;99668.34;;;3.93;68.37
58662;BME280;44432;49.786;22.760;2023-03-16T08:23:33;99671.07;;;4.16;68.11
58662;BME280;44432;49.786;22.760;2023-03-16T08:26:02;99673.33;;;4.30;67.35
58662;BME280;44432;49.786;22.760;2023-03-16T08:28:34;99682.31;;;4.43;67.01
58662;BME280;44432;49.786;22.760;2023-03-16T08:31:02;99678.52;;;4.38;65.94
58662;BME280;44432;49.786;22.760;2023-03-16T08:33:33;99686.39;;;4.33;66.09
58662;BME280;44432;49.786;22.760;2023-03-16T08:36:04;99688.94;;;4.30;66.33
58662;BME280;44432;49.786;22.760;2023-03-16T08:38:31;99694.67;;;4.25;66.10
58662;BME280;44432;49.786;22.760;2023-03-16T08:41:00;99702.23;;;4.26;66.14
58662;BME280;44432;49.786;22.760;2023-03-16T08:43:33;99705.33;;;4.23;65.80
58662;BME280;44432;49.786;22.760;2023-03-16T08:46:01;99706.90;;;4.18;65.57
58662;BME280;44432;49.786;22.760;2023-03-16T08:48:38;99710.98;;;4.03;65.41
58662;BME280;44432;49.786;22.760;2023-03-16T08:51:07;99713.83;;;3.96;65.72
58662;BME280;44432;49.786;22.760;2023-03-16T08:53:36;99718.13;;;3.93;65.67
58662;BME280;44432;49.786;22.760;2023-03-16T08:56:06;99717.89;;;3.90;65.93
58662;BME280;44432;49.786;22.760;2023-03-16T08:58:43;99720.95;;;3.99;66.57
58662;BME280;44432;49.786;22.760;2023-03-16T09:01:24;99720.42;;;4.16;66.59
58662;BME280;44432;49.786;22.760;2023-03-16T09:03:53;99723.70;;;4.26;66.26
58662;BME280;44432;49.786;22.760;2023-03-16T09:06:20;99725.89;;;4.28;65.14
58662;BME280;44432;49.786;22.760;2023-03-16T09:08:48;99725.13;;;4.27;65.57
58662;BME280;44432;49.786;22.760;2023-03-16T09:11:18;99729.10;;;4.33;65.93
58662;BME280;44432;49.786;22.760;2023-03-16T09:13:45;99728.33;;;4.46;66.19
58662;BME280;44432;49.786;22.760;2023-03-16T09:16:15;99729.32;;;4.56;65.89
58662;BME280;44432;49.786;22.760;2023-03-16T09:18:43;99725.56;;;4.66;65.71
58662;BME280;44432;49.786;22.760;2023-03-16T09:21:11;99726.02;;;4.71;65.52
58662;BME280;44432;49.786;22.760;2023-03-16T09:23:40;99723.56;;;4.81;65.53
58662;BME280;44432;49.786;22.760;2023-03-16T09:26:10;99726.80;;;4.85;64.52
58662;BME280;44432;49.786;22.760;2023-03-16T09:28:39;99732.92;;;4.80;64.41
58662;BME280;44432;49.786;22.760;2023-03-16T09:31:08;99728.41;;;4.73;63.93
58662;BME280;44432;49.786;22.760;2023-03-16T09:33:36;99732.14;;;4.65;63.97
58662;BME280;44432;49.786;22.760;2023-03-16T09:36:05;99730.92;;;4.60;64.30
58662;BME280;44432;49.786;22.760;2023-03-16T09:38:33;99735.52;;;4.52;63.79
58662;BME280;44432;49.786;22.760;2023-03-16T09:41:01;99736.92;;;4.44;64.13
58662;BME280;44432;49.786;22.760;2023-03-16T09:46:23;99738.60;;;4.56;64.78
58662;BME280;44432;49.786;22.760;2023-03-16T09:48:53;99744.46;;;4.67;64.35
58662;BME280;44432;49.786;22.760;2023-03-16T09:51:22;99737.23;;;4.74;64.36
58662;BME280;44432;49.786;22.760;2023-03-16T09:53:56;99747.80;;;4.84;64.01
58662;BME280;44432;49.786;22.760;2023-03-16T09:56:28;99749.50;;;4.86;63.71
58662;BME280;44432;49.786;22.760;2023-03-16T09:58:57;99749.50;;;4.90;63.32
58662;BME280;44432;49.786;22.760;2023-03-16T10:01:29;99749.79;;;4.97;62.95
58662;BME280;44432;49.786;22.760;2023-03-16T10:04:10;99746.02;;;5.06;63.17
58662;BME280;44432;49.786;22.760;2023-03-16T10:06:45;99746.19;;;5.25;63.15
58662;BME280;44432;49.786;22.760;2023-03-16T10:09:19;99749.84;;;5.35;62.08
58662;BME280;44432;49.786;22.760;2023-03-16T10:11:51;99749.94;;;5.32;61.54
58662;BME280;44432;49.786;22.760;2023-03-16T10:14:21;99745.52;;;5.33;61.86
58662;BME280;44432;49.786;22.760;2023-03-16T10:16:50;99747.23;;;5.41;62.05
58662;BME280;44432;49.786;22.760;2023-03-16T10:19:20;99749.08;;;5.49;61.10
58662;BME280;44432;49.786;22.760;2023-03-16T10:21:51;99744.23;;;5.57;60.44
58662;BME280;44432;49.786;22.760;2023-03-16T10:24:23;99739.55;;;5.66;60.24
58662;BME280;44432;49.786;22.760;2023-03-16T10:26:54;99748.84;;;5.80;59.87
58662;BME280;44432;49.786;22.760;2023-03-16T10:29:29;99755.05;;;5.85;58.52
58662;BME280;44432;49.786;22.760;2023-03-16T10:31:58;99750.63;;;5.87;58.68
58662;BME280;44432;49.786;22.760;2023-03-16T10:34:28;99748.08;;;5.92;58.63
58662;BME280;44432;49.786;22.760;2023-03-16T10:36:56;99757.19;;;5.98;56.78
58662;BME280;44432;49.786;22.760;2023-03-16T10:39:34;99755.50;;;5.93;55.13
58662;BME280;44432;49.786;22.760;2023-03-16T10:42:02;99754.92;;;5.96;55.88
58662;BME280;44432;49.786;22.760;2023-03-16T10:44:29;99750.21;;;6.08;56.76
58662;BME280;44432;49.786;22.760;2023-03-16T10:47:00;99758.77;;;6.19;56.20
58662;BME280;44432;49.786;22.760;2023-03-16T10:49:34;99756.05;;;6.20;56.31
58662;BME280;44432;49.786;22.760;2023-03-16T10:52:10;99757.16;;;6.21;56.16
58662;BME280;44432;49.786;22.760;2023-03-16T10:54:47;99757.23;;;6.14;54.55
58662;BME280;44432;49.786;22.760;2023-03-16T10:57:20;99755.88;;;6.11;54.87
58662;BME280;44432;49.786;22.760;2023-03-16T10:59:50;99758.10;;;6.11;54.97
58662;BME280;44432;49.786;22.760;2023-03-16T11:02:18;99756.46;;;6.10;54.65
58662;BME280;44432;49.786;22.760;2023-03-16T11:04:51;99754.64;;;6.15;55.01
58662;BME280;44432;49.786;22.760;2023-03-16T11:07:21;99753.08;;;6.19;53.37
58662;BME280;44432;49.786;22.760;2023-03-16T11:09:50;99750.94;;;6.08;52.67
58662;BME280;44432;49.786;22.760;2023-03-16T11:12:23;99748.95;;;5.99;53.62
58662;BME280;44432;49.786;22.760;2023-03-16T11:14:53;99751.83;;;5.94;53.85
58662;BME280;44432;49.786;22.760;2023-03-16T11:17:23;99750.60;;;5.98;54.13
58662;BME280;44432;49.786;22.760;2023-03-16T11:19:53;99749.77;;;6.04;53.87
58662;BME280;44432;49.786;22.760;2023-03-16T11:22:24;99753.34;;;6.13;53.75
58662;BME280;44432;49.786;22.760;2023-03-16T11:24:59;99753.31;;;6.26;53.57
58662;BME280;44432;49.786;22.760;2023-03-16T11:27:32;99754.09;;;6.37;52.94
58662;BME280;44432;49.786;22.760;2023-03-16T11:30:03;99752.21;;;6.49;51.98
58662;BME280;44432;49.786;22.760;2023-03-16T11:32:32;99743.86;;;6.61;52.33
58662;BME280;44432;49.786;22.760;2023-03-16T11:35:06;99744.54;;;6.72;52.34
58662;BME280;44432;49.786;22.760;2023-03-16T11:37:45;99740.44;;;6.84;51.30
58662;BME280;44432;49.786;22.760;2023-03-16T11:40:19;99745.42;;;6.83;49.31
58662;BME280;44432;49.786;22.760;2023-03-16T11:42:53;99746.78;;;6.69;48.46
58662;BME280;44432;49.786;22.760;2023-03-16T11:45:29;99738.45;;;6.47;49.12
58662;BME280;44432;49.786;22.760;2023-03-16T11:48:05;99738.78;;;6.38;49.71
58662;BME280;44432;49.786;22.760;2023-03-16T11:50:38;99740.08;;;6.39;49.32
58662;BME280;44432;49.786;22.760;2023-03-16T11:53:15;99737.71;;;6.55;50.15
58662;BME280;44432;49.786;22.760;2023-03-16T11:55:48;99735.75;;;6.83;50.23
58662;BME280;44432;49.786;22.760;2023-03-16T11:58:29;99727.25;;;7.09;49.83
58662;BME280;44432;49.786;22.760;2023-03-16T12:01:06;99734.60;;;7.23;49.30
58662;BME280;44432;49.786;22.760;2023-03-16T12:03:40;99755.23;;;7.06;47.23
58662;BME280;44432;49.786;22.760;2023-03-16T12:06:17;99753.61;;;6.64;48.92
58662;BME280;44432;49.786;22.760;2023-03-16T12:08:56;99753.41;;;6.36;50.70
58662;BME280;44432;49.786;22.760;2023-03-16T12:11:33;99756.77;;;6.20;51.30
58662;BME280;44432;49.786;22.760;2023-03-16T12:14:11;99751.33;;;6.02;51.30
58662;BME280;44432;49.786;22.760;2023-03-16T12:16:44;99753.28;;;5.90;51.36
58662;BME280;44432;49.786;22.760;2023-03-16T12:19:18;99750.29;;;5.85;51.98
58662;BME280;44432;49.786;22.760;2023-03-16T12:21:53;99749.84;;;5.90;51.37
58662;BME280;44432;49.786;22.760;2023-03-16T12:24:25;99744.95;;;5.91;49.98
58662;BME280;44432;49.786;22.760;2023-03-16T12:26:59;99745.20;;;5.91;49.52
58662;BME280;44432;49.786;22.760;2023-03-16T12:29:28;99741.84;;;5.94;50.03
58662;BME280;44432;49.786;22.760;2023-03-16T12:32:01;99748.36;;;6.00;48.71
58662;BME280;44432;49.786;22.760;2023-03-16T12:34:35;99744.59;;;6.00;48.33
58662;BME280;44432;49.786;22.760;2023-03-16T12:37:13;99741.64;;;6.07;48.62
58662;BME280;44432;49.786;22.760;2023-03-16T12:39:58;99742.34;;;6.16;47.25
58662;BME280;44432;49.786;22.760;2023-03-16T12:42:43;99742.31;;;6.21;47.99
58662;BME280;44432;49.786;22.760;2023-03-16T12:45:20;99738.08;;;6.35;47.40
58662;BME280;44432;49.786;22.760;2023-03-16T12:47:52;99733.66;;;6.48;47.66
58662;BME280;44432;49.786;22.760;2023-03-16T12:50:25;99733.39;;;6.64;47.20
58662;BME280;44432;49.786;22.760;2023-03-16T12:52:54;99736.08;;;6.78;47.11
58662;BME280;44432;49.786;22.760;2023-03-16T12:55:24;99738.79;;;6.93;46.91
58662;BME280;44432;49.786;22.760;2023-03-16T12:57:58;99741.58;;;7.00;46.61
58662;BME280;44432;49.786;22.760;2023-03-16T13:00:32;99743.25;;;7.07;46.60
58662;BME280;44432;49.786;22.760;2023-03-16T13:03:03;99749.79;;;7.03;45.31
58662;BME280;44432;49.786;22.760;2023-03-16T13:05:32;99762.21;;;6.93;44.42
58662;BME280;44432;49.786;22.760;2023-03-16T13:08:04;99761.52;;;6.79;45.11
58662;BME280;44432;49.786;22.760;2023-03-16T13:10:34;99772.23;;;6.70;44.74
58662;BME280;44432;49.786;22.760;2023-03-16T13:13:09;99767.14;;;6.58;45.77
58662;BME280;44432;49.786;22.760;2023-03-16T13:15:40;99772.27;;;6.51;45.00
58662;BME280;44432;49.786;22.760;2023-03-16T13:18:23;99776.59;;;6.41;45.15
58662;BME280;44432;49.786;22.760;2023-03-16T13:21:12;99773.90;;;6.31;45.85